createdAt,value
2023-04-21T00:00:57.565Z,6.90
2023-04-21T00:03:24.873Z,6.90
2023-04-21T00:05:52.352Z,7.00
2023-04-21T00:08:20.909Z,7.00
2023-04-21T00:10:47.748Z,7.00
2023-04-21T00:13:14.655Z,7.00
2023-04-21T00:15:41.593Z,7.00
2023-04-21T00:18:08.668Z,7.10
2023-04-21T00:20:36.262Z,7.00
2023-04-21T00:23:03.127Z,6.90
2023-04-21T00:25:31.465Z,6.90
2023-04-21T00:27:58.706Z,6.90
2023-04-21T00:30:25.698Z,6.90
2023-04-21T00:32:52.955Z,6.90
2023-04-21T00:35:19.908Z,6.90
2023-04-21T00:37:46.819Z,7.00
2023-04-21T00:40:13.883Z,7.00
2023-04-21T00:42:42.322Z,7.00
2023-04-21T00:45:09.576Z,7.00
2023-04-21T00:47:36.491Z,7.00
2023-04-21T00:50:04.277Z,6.90
2023-04-21T00:52:32.876Z,6.90
2023-04-21T00:55:00.140Z,6.90
2023-04-21T00:57:27.994Z,6.90
2023-04-21T00:59:56.167Z,6.90
2023-04-21T01:02:23.563Z,6.90
2023-04-21T01:04:50.618Z,7.00
2023-04-21T01:07:17.423Z,7.00
2023-04-21T01:09:44.202Z,7.00
2023-04-21T01:12:12.339Z,7.10
2023-04-21T01:14:40.388Z,7.10
2023-04-21T01:17:08.894Z,7.20
2023-04-21T01:19:38.418Z,7.20
2023-04-21T01:22:06.775Z,7.20
2023-04-21T01:24:37.872Z,7.20
2023-04-21T01:27:09.267Z,7.30
2023-04-21T01:29:36.081Z,7.20
2023-04-21T01:32:08.144Z,7.10
2023-04-21T01:34:35.377Z,7.10
2023-04-21T01:37:02.350Z,7.10
2023-04-21T01:39:30.519Z,7.20
2023-04-21T01:41:57.413Z,7.20
2023-04-21T01:44:25.194Z,7.20
2023-04-21T01:46:52.272Z,7.30
2023-04-21T01:49:19.276Z,7.30
2023-04-21T01:51:46.224Z,7.30
2023-04-21T01:54:13.064Z,7.40
2023-04-21T01:56:41.447Z,7.40
2023-04-21T01:59:08.261Z,7.40
2023-04-21T02:01:35.194Z,7.40
2023-04-21T02:04:02.975Z,7.40
2023-04-21T02:06:29.993Z,7.40
2023-04-21T02:08:56.818Z,7.40
2023-04-21T02:11:23.706Z,7.40
2023-04-21T02:13:52.154Z,7.40
2023-04-21T02:16:19.059Z,7.40
2023-04-21T02:18:45.974Z,7.40
2023-04-21T02:21:12.850Z,7.40
2023-04-21T02:23:39.732Z,7.40
2023-04-21T02:26:06.632Z,7.40
2023-04-21T02:28:33.550Z,7.40
2023-04-21T02:31:01.970Z,7.40
2023-04-21T02:33:29.680Z,7.40
2023-04-21T02:35:56.625Z,7.40
2023-04-21T02:38:23.496Z,7.40
2023-04-21T02:40:50.498Z,7.40
2023-04-21T02:43:17.665Z,7.30
2023-04-21T02:45:44.839Z,7.30
2023-04-21T02:48:13.402Z,7.30
2023-04-21T02:50:40.378Z,7.30
2023-04-21T02:53:07.577Z,7.30
2023-04-21T02:55:34.396Z,7.30
2023-04-21T02:58:01.387Z,7.30
2023-04-21T03:00:28.247Z,7.20
2023-04-21T03:02:55.266Z,7.20
2023-04-21T03:05:23.802Z,7.20
2023-04-21T03:07:50.774Z,7.20
2023-04-21T03:10:17.727Z,7.20
2023-04-21T03:12:44.855Z,7.20
2023-04-21T03:15:11.893Z,7.20
2023-04-21T03:17:38.903Z,7.10
2023-04-21T03:20:06.980Z,7.10
2023-04-21T03:22:35.476Z,7.10
2023-04-21T03:25:02.485Z,7.10
2023-04-21T03:27:29.277Z,7.00
2023-04-21T03:29:56.097Z,6.90
2023-04-21T03:32:23.314Z,6.90
2023-04-21T03:34:50.348Z,6.90
2023-04-21T03:37:17.234Z,6.80
2023-04-21T03:39:45.391Z,6.80
2023-04-21T03:42:12.522Z,6.70
2023-04-21T03:44:39.391Z,6.60
2023-04-21T03:47:06.183Z,6.60
2023-04-21T03:49:34.335Z,6.50
2023-04-21T03:52:01.089Z,6.50
2023-04-21T03:54:27.924Z,6.50
2023-04-21T03:56:56.200Z,6.40
2023-04-21T03:59:23.087Z,6.40
2023-04-21T04:01:50.007Z,6.30
2023-04-21T04:04:17.004Z,6.30
2023-04-21T04:06:44.169Z,6.30
2023-04-21T04:09:10.958Z,6.20
2023-04-21T04:11:37.819Z,6.20
2023-04-21T04:14:06.051Z,6.20
2023-04-21T04:16:34.218Z,6.20
2023-04-21T04:19:01.032Z,6.20
2023-04-21T04:21:27.905Z,6.20
2023-04-21T04:23:54.856Z,6.20
2023-04-21T04:26:21.652Z,6.10
2023-04-21T04:28:48.598Z,6.20
2023-04-21T04:31:16.904Z,6.10
2023-04-21T04:33:43.848Z,6.20
2023-04-21T04:36:10.997Z,6.10
2023-04-21T04:38:38.015Z,6.20
2023-04-21T04:41:05.309Z,6.20
2023-04-21T04:43:32.333Z,6.20
2023-04-21T04:45:59.237Z,6.20
2023-04-21T04:48:27.405Z,6.20
2023-04-21T04:50:54.442Z,6.20
2023-04-21T04:53:21.743Z,6.20
2023-04-21T04:55:48.612Z,6.30
2023-04-21T04:58:16.480Z,6.30
2023-04-21T05:00:43.324Z,6.30
2023-04-21T05:03:10.264Z,6.40
2023-04-21T05:05:38.558Z,6.40
2023-04-21T05:08:05.651Z,6.40
2023-04-21T05:10:32.887Z,6.50
2023-04-21T05:12:59.969Z,6.60
2023-04-21T05:15:26.811Z,6.60
2023-04-21T05:17:53.598Z,6.70
2023-04-21T05:20:20.452Z,6.80
2023-04-21T05:22:48.623Z,6.90
2023-04-21T05:25:15.462Z,7.00
2023-04-21T05:27:42.332Z,7.10
2023-04-21T05:30:09.970Z,7.20
2023-04-21T05:32:36.888Z,7.30
2023-04-21T05:35:04.015Z,7.40
2023-04-21T05:37:30.792Z,7.50
2023-04-21T05:39:59.120Z,7.60
2023-04-21T05:42:25.884Z,7.70
2023-04-21T05:44:53.146Z,7.90
2023-04-21T05:47:19.973Z,8.00
2023-04-21T05:49:46.803Z,8.10
2023-04-21T05:52:13.555Z,8.20
2023-04-21T05:54:40.358Z,8.40
2023-04-21T05:57:08.654Z,8.60
2023-04-21T05:59:35.435Z,8.80
2023-04-21T06:02:02.478Z,9.00
2023-04-21T06:04:29.808Z,9.10
2023-04-21T06:06:56.812Z,9.30
2023-04-21T06:09:23.581Z,9.60
2023-04-21T06:11:50.388Z,9.80
2023-04-21T06:14:18.787Z,10.10
2023-04-21T06:16:46.030Z,10.40
2023-04-21T06:19:12.876Z,10.60
2023-04-21T06:21:39.651Z,10.90
2023-04-21T06:24:07.101Z,11.10
2023-04-21T06:26:33.934Z,11.30
2023-04-21T06:29:00.694Z,11.40
2023-04-21T06:31:28.800Z,11.50
2023-04-21T06:33:55.639Z,11.70
2023-04-21T06:36:22.395Z,11.80
2023-04-21T06:38:49.387Z,12.10
2023-04-21T06:41:16.142Z,12.30
2023-04-21T06:43:42.923Z,12.40
2023-04-21T06:46:09.711Z,12.60
2023-04-21T06:48:37.835Z,12.80
2023-04-21T06:51:04.944Z,13.00
2023-04-21T06:53:32.281Z,13.20
2023-04-21T06:55:59.083Z,13.30
2023-04-21T06:58:26.206Z,13.20
2023-04-21T07:00:53.126Z,13.20
2023-04-21T07:03:20.181Z,13.20
2023-04-21T07:05:48.489Z,13.30
2023-04-21T07:08:15.238Z,13.40
2023-04-21T07:10:42.017Z,13.50
2023-04-21T07:13:10.106Z,13.50
2023-04-21T07:15:36.983Z,13.50
2023-04-21T07:18:03.924Z,13.40
2023-04-21T07:20:30.736Z,13.20
2023-04-21T07:22:58.913Z,13.10
2023-04-21T07:25:26.082Z,13.10
2023-04-21T07:27:52.859Z,13.20
2023-04-21T07:30:19.691Z,13.30
2023-04-21T07:32:46.600Z,13.40
2023-04-21T07:35:13.688Z,13.40
2023-04-21T07:37:40.461Z,13.40
2023-04-21T07:40:09.918Z,13.50
2023-04-21T07:42:36.706Z,13.60
2023-04-21T07:45:03.846Z,13.80
2023-04-21T07:47:30.788Z,13.90
2023-04-21T07:49:57.695Z,14.10
2023-04-21T07:52:24.491Z,14.10
2023-04-21T07:54:51.371Z,14.20
2023-04-21T07:57:19.432Z,14.30
2023-04-21T07:59:46.247Z,14.40
2023-04-21T08:02:13.102Z,14.70
2023-04-21T08:04:39.957Z,15.00
2023-04-21T08:07:06.959Z,15.20
2023-04-21T08:09:33.867Z,15.40
2023-04-21T08:12:00.661Z,15.40
2023-04-21T08:14:28.851Z,15.40
2023-04-21T08:16:57.199Z,15.50
2023-04-21T08:19:24.341Z,15.70
2023-04-21T08:21:51.163Z,15.90
2023-04-21T08:24:18.286Z,16.10
2023-04-21T08:26:45.787Z,16.40
2023-04-21T08:29:12.591Z,16.60
2023-04-21T08:31:40.826Z,16.70
2023-04-21T08:34:07.930Z,16.70
2023-04-21T08:36:34.933Z,16.90
2023-04-21T08:39:01.858Z,16.90
2023-04-21T08:41:28.708Z,16.80
2023-04-21T08:43:55.509Z,16.80
2023-04-21T08:46:23.323Z,16.70
2023-04-21T08:48:52.960Z,16.70
2023-04-21T08:51:22.686Z,16.70
2023-04-21T08:53:49.484Z,16.80
2023-04-21T08:56:16.260Z,16.70
2023-04-21T08:58:43.000Z,16.60
2023-04-21T09:01:09.878Z,16.60
2023-04-21T09:03:36.819Z,16.70
2023-04-21T09:06:07.806Z,16.80
2023-04-21T09:08:36.754Z,16.70
2023-04-21T09:11:03.692Z,16.80
2023-04-21T09:13:31.835Z,16.80
2023-04-21T09:15:59.267Z,16.80
2023-04-21T09:18:27.860Z,16.80
2023-04-21T09:21:07.848Z,16.90
2023-04-21T09:23:41.269Z,17.10
2023-04-21T09:26:09.578Z,17.20
2023-04-21T09:28:36.365Z,17.30
2023-04-21T09:31:03.238Z,17.40
2023-04-21T09:36:01.829Z,17.50
2023-04-21T09:38:30.149Z,17.50
2023-04-21T09:40:57.566Z,17.50
2023-04-21T09:43:24.545Z,17.50
2023-04-21T09:45:51.653Z,17.50
2023-04-21T09:48:22.397Z,17.50
2023-04-21T09:51:22.729Z,17.50
2023-04-21T09:53:40.224Z,17.40
2023-04-21T09:56:11.901Z,17.30
2023-04-21T09:58:43.584Z,17.10
2023-04-21T10:01:11.814Z,17.00
2023-04-21T10:03:39.755Z,16.90
2023-04-21T10:06:07.451Z,16.80
2023-04-21T10:08:35.302Z,16.60
2023-04-21T10:11:04.371Z,16.50
2023-04-21T10:13:31.477Z,16.40
2023-04-21T10:16:05.858Z,16.30
2023-04-21T10:18:35.822Z,16.20
2023-04-21T10:21:04.761Z,16.20
2023-04-21T10:23:36.279Z,16.10
2023-04-21T10:26:11.002Z,16.00
2023-04-21T10:28:42.133Z,16.00
2023-04-21T10:31:33.342Z,16.00
2023-04-21T10:34:22.820Z,15.90
2023-04-21T10:37:09.989Z,15.90
2023-04-21T10:39:37.720Z,15.90
2023-04-21T10:42:22.307Z,15.80
2023-04-21T10:44:54.203Z,15.80
2023-04-21T10:47:27.371Z,15.80
2023-04-21T10:49:56.846Z,15.80
2023-04-21T10:52:31.213Z,15.80
2023-04-21T10:55:16.111Z,15.80
2023-04-21T10:57:45.498Z,15.80
2023-04-21T11:00:17.001Z,15.80
2023-04-21T11:02:45.253Z,15.90
2023-04-21T11:05:12.939Z,16.00
2023-04-21T11:07:39.970Z,16.00
2023-04-21T11:10:08.731Z,16.00
2023-04-21T11:12:38.221Z,16.10
2023-04-21T11:15:08.451Z,16.10
2023-04-21T11:17:36.084Z,16.10
2023-04-21T11:20:04.040Z,16.10
2023-04-21T11:22:30.835Z,16.10
2023-04-21T11:25:01.293Z,16.20
2023-04-21T11:27:29.402Z,16.30
2023-04-21T11:29:56.955Z,16.30
2023-04-21T11:32:25.191Z,16.30
2023-04-21T11:34:52.112Z,16.20
2023-04-21T11:37:24.908Z,16.30
2023-04-21T11:39:57.404Z,16.40
2023-04-21T11:42:24.331Z,16.50
2023-04-21T11:44:53.647Z,16.60
2023-04-21T11:47:22.723Z,16.60
2023-04-21T11:49:52.570Z,16.80
2023-04-21T11:52:23.966Z,16.90
2023-04-21T11:54:55.846Z,17.00
2023-04-21T11:57:23.766Z,17.00
2023-04-21T11:59:50.676Z,17.00
2023-04-21T12:02:23.081Z,17.10
2023-04-21T12:05:07.200Z,17.10
2023-04-21T12:07:34.817Z,17.10
2023-04-21T12:10:02.420Z,17.20
2023-04-21T12:12:30.055Z,17.30
2023-04-21T12:14:56.940Z,17.30
2023-04-21T12:17:23.718Z,17.40
2023-04-21T12:19:50.537Z,17.50
2023-04-21T12:22:18.990Z,17.50
2023-04-21T12:24:46.365Z,17.60
2023-04-21T12:27:13.694Z,17.70
2023-04-21T12:29:40.816Z,17.70
2023-04-21T12:32:08.762Z,17.80
2023-04-21T12:34:36.063Z,18.00
2023-04-21T12:37:03.519Z,18.00
2023-04-21T12:39:32.271Z,18.10
2023-04-21T12:41:59.574Z,18.40
2023-04-21T12:44:26.513Z,18.90
2023-04-21T12:46:53.461Z,19.90
2023-04-21T12:49:20.521Z,21.60
2023-04-21T12:51:48.794Z,23.30
2023-04-21T12:54:15.606Z,24.90
2023-04-21T12:56:44.120Z,26.30
2023-04-21T12:59:11.523Z,27.40
2023-04-21T13:01:40.053Z,28.30
2023-04-21T13:04:08.121Z,28.80
2023-04-21T13:06:35.336Z,29.10
2023-04-21T13:09:02.188Z,29.60
2023-04-21T13:11:28.986Z,30.20
2023-04-21T13:13:57.762Z,30.80
2023-04-21T13:16:24.660Z,31.30
2023-04-21T13:18:51.487Z,32.00
2023-04-21T13:21:18.243Z,32.50
2023-04-21T13:23:45.235Z,33.30
2023-04-21T13:26:12.284Z,34.00
2023-04-21T13:28:39.104Z,34.50
2023-04-21T13:31:07.451Z,35.00
2023-04-21T13:33:34.481Z,35.50
2023-04-21T13:36:02.122Z,36.10
2023-04-21T13:38:29.025Z,36.60
2023-04-21T13:40:55.952Z,37.20
2023-04-21T13:43:23.115Z,37.50
2023-04-21T13:45:50.506Z,37.30
2023-04-21T13:48:19.286Z,36.90
2023-04-21T13:50:46.477Z,37.20
2023-04-21T13:53:13.370Z,37.50
2023-04-21T13:55:40.238Z,38.30
2023-04-21T13:58:07.048Z,38.40
2023-04-21T14:00:34.038Z,38.80
2023-04-21T14:03:01.077Z,39.00
2023-04-21T14:05:29.920Z,39.20
2023-04-21T14:07:56.909Z,39.40
2023-04-21T14:10:24.191Z,39.80
2023-04-21T14:12:50.981Z,40.10
2023-04-21T14:15:18.019Z,40.50
2023-04-21T14:17:44.882Z,41.20
2023-04-21T14:20:12.046Z,41.60
2023-04-21T14:22:40.182Z,41.50
2023-04-21T14:25:07.471Z,41.80
2023-04-21T14:27:34.472Z,42.30
2023-04-21T14:30:01.472Z,42.50
2023-04-21T14:32:28.506Z,42.70
2023-04-21T14:34:55.444Z,42.50
2023-04-21T14:37:22.560Z,42.50
2023-04-21T14:39:50.803Z,42.90
2023-04-21T14:42:17.661Z,43.20
2023-04-21T14:44:44.630Z,43.30
2023-04-21T14:47:11.739Z,43.60
2023-04-21T14:49:38.960Z,43.60
2023-04-21T14:52:05.904Z,42.60
2023-04-21T14:54:32.802Z,41.70
2023-04-21T14:57:17.486Z,39.40
2023-04-21T14:59:46.302Z,37.10
2023-04-21T15:02:13.557Z,37.20
2023-04-21T15:04:40.872Z,38.60
2023-04-21T15:07:07.735Z,40.00
2023-04-21T15:09:34.833Z,41.00
2023-04-21T15:12:03.431Z,41.90
2023-04-21T15:14:30.343Z,42.70
2023-04-21T15:16:57.314Z,43.40
2023-04-21T15:19:25.686Z,44.10
2023-04-21T15:21:58.781Z,44.50
2023-04-21T15:24:25.680Z,44.50
2023-04-21T15:26:52.637Z,44.10
2023-04-21T15:29:20.774Z,44.20
2023-04-21T15:31:47.585Z,44.30
2023-04-21T15:34:14.364Z,44.50
2023-04-21T15:36:41.167Z,43.20
2023-04-21T15:39:08.014Z,41.50
2023-04-21T15:41:34.860Z,41.40
2023-04-21T15:44:01.666Z,42.00
2023-04-21T15:46:29.913Z,42.50
2023-04-21T15:48:57.121Z,43.00
2023-04-21T15:51:24.061Z,43.60
2023-04-21T15:53:51.025Z,43.30
2023-04-21T15:56:18.033Z,42.00
2023-04-21T15:58:45.058Z,40.90
2023-04-21T16:01:12.073Z,41.20
2023-04-21T16:03:40.498Z,41.80
2023-04-21T16:06:08.021Z,42.30
2023-04-21T16:08:34.849Z,42.80
2023-04-21T16:11:01.709Z,43.30
2023-04-21T16:13:29.001Z,43.70
2023-04-21T16:15:55.799Z,43.60
2023-04-21T16:18:22.743Z,43.30
2023-04-21T16:20:51.316Z,43.00
2023-04-21T16:23:18.838Z,42.50
2023-04-21T16:25:45.802Z,42.10
2023-04-21T16:28:12.749Z,41.80
2023-04-21T16:30:39.612Z,41.30
2023-04-21T16:33:06.425Z,39.10
2023-04-21T16:35:33.715Z,36.70
2023-04-21T16:38:02.298Z,35.30
2023-04-21T16:40:29.310Z,35.60
2023-04-21T16:42:56.181Z,36.60
2023-04-21T16:45:23.123Z,37.00
2023-04-21T16:47:50.083Z,37.40
2023-04-21T16:50:17.022Z,37.30
2023-04-21T16:58:13.580Z,37.60
2023-04-21T17:00:40.365Z,37.70
2023-04-21T17:03:07.847Z,37.70
2023-04-21T17:05:34.836Z,37.40
2023-04-21T17:08:01.696Z,37.20
2023-04-21T17:10:28.530Z,37.00
2023-04-21T17:12:55.308Z,36.70
2023-04-21T17:15:23.542Z,34.90
2023-04-21T17:17:50.466Z,32.80
2023-04-21T17:20:17.280Z,30.80
2023-04-21T17:22:44.089Z,30.20
2023-04-21T17:25:11.301Z,30.60
2023-04-21T17:27:38.624Z,31.40
2023-04-21T17:30:06.638Z,32.00
2023-04-21T17:32:34.925Z,32.20
2023-04-21T17:35:01.811Z,32.30
2023-04-21T17:37:28.728Z,32.10
2023-04-21T17:39:55.723Z,30.80
2023-04-21T17:42:22.491Z,29.50
2023-04-21T17:44:49.387Z,28.80
2023-04-21T17:47:16.185Z,28.60
2023-04-21T17:49:44.330Z,28.50
2023-04-21T17:52:11.147Z,27.80
2023-04-21T17:54:38.080Z,26.70
2023-04-21T17:57:05.119Z,25.30
2023-04-21T17:59:31.960Z,24.10
2023-04-21T18:01:58.943Z,23.10
2023-04-21T18:04:26.150Z,22.20
2023-04-21T18:06:54.383Z,21.50
2023-04-21T18:09:21.164Z,20.90
2023-04-21T18:11:47.929Z,20.30
2023-04-21T18:14:15.083Z,19.90
2023-04-21T18:16:41.840Z,19.50
2023-04-21T18:19:08.720Z,19.20
2023-04-21T18:21:35.552Z,18.80
2023-04-21T18:24:03.999Z,18.50
2023-04-21T18:26:30.760Z,18.30
2023-04-21T18:28:57.486Z,18.10
2023-04-21T18:31:24.401Z,17.90
2023-04-21T18:33:51.321Z,17.70
2023-04-21T18:36:18.131Z,17.50
2023-04-21T18:38:44.865Z,17.40
2023-04-21T18:41:13.084Z,17.20
2023-04-21T18:43:40.096Z,17.10
2023-04-21T18:46:06.867Z,16.90
2023-04-21T18:48:33.609Z,16.80
2023-04-21T18:51:00.393Z,16.70
2023-04-21T18:53:27.212Z,16.70
2023-04-21T18:55:54.054Z,16.60
2023-04-21T18:58:22.364Z,16.50
2023-04-21T19:00:49.207Z,16.40
2023-04-21T19:03:16.126Z,16.30
2023-04-21T19:05:43.096Z,16.30
2023-04-21T19:08:09.922Z,16.20
2023-04-21T19:10:36.913Z,16.10
2023-04-21T19:13:03.917Z,16.10
2023-04-21T19:15:32.373Z,16.00
2023-04-21T19:17:59.168Z,16.00
2023-04-21T19:20:26.239Z,15.90
2023-04-21T19:22:52.965Z,15.90
2023-04-21T19:25:19.883Z,15.80
2023-04-21T19:27:47.604Z,15.80
2023-04-21T19:30:14.555Z,15.70
2023-04-21T19:32:42.755Z,15.60
2023-04-21T19:35:10.197Z,15.50
2023-04-21T19:37:37.118Z,15.40
2023-04-21T19:40:04.712Z,15.30
2023-04-21T19:42:31.615Z,15.20
2023-04-21T19:44:58.400Z,15.10
2023-04-21T19:47:25.407Z,15.10
2023-04-21T19:49:53.557Z,15.00
2023-04-21T19:52:20.416Z,14.90
2023-04-21T19:54:47.165Z,14.80
2023-04-21T19:57:13.920Z,14.80
2023-04-21T19:59:40.812Z,14.60
2023-04-21T20:02:08.120Z,14.60
2023-04-21T20:04:35.193Z,14.50
2023-04-21T20:07:03.486Z,14.40
2023-04-21T20:09:30.242Z,14.30
2023-04-21T20:11:56.942Z,14.20
2023-04-21T20:14:23.667Z,14.10
2023-04-21T20:16:50.454Z,14.00
2023-04-21T20:19:20.041Z,13.90
2023-04-21T20:21:46.766Z,13.80
2023-04-21T20:24:14.880Z,13.80
2023-04-21T20:26:41.682Z,13.70
2023-04-21T20:29:08.662Z,13.60
2023-04-21T20:31:35.511Z,13.60
2023-04-21T20:34:02.298Z,13.50
2023-04-21T20:36:29.128Z,13.50
2023-04-21T20:38:56.399Z,13.50
2023-04-21T20:41:24.530Z,13.40
2023-04-21T20:43:51.303Z,13.40
2023-04-21T20:46:18.314Z,13.30
2023-04-21T20:48:45.132Z,13.30
2023-04-21T20:51:11.898Z,13.20
2023-04-21T20:53:38.652Z,13.20
2023-04-21T20:56:05.619Z,13.20
2023-04-21T20:58:33.750Z,13.20
2023-04-21T21:01:00.542Z,13.20
2023-04-21T21:03:27.656Z,13.10
2023-04-21T21:05:54.576Z,13.10
2023-04-21T21:08:21.422Z,13.10
2023-04-21T21:10:48.246Z,13.00
2023-04-21T21:13:15.001Z,13.00
2023-04-21T21:15:43.132Z,12.90
2023-04-21T21:18:09.934Z,12.90
2023-04-21T21:20:36.798Z,12.90
2023-04-21T21:23:03.596Z,12.80
2023-04-21T21:25:30.477Z,12.80
2023-04-21T21:27:57.299Z,12.70
2023-04-21T21:30:24.037Z,12.70
2023-04-21T21:32:52.265Z,12.60
2023-04-21T21:35:19.117Z,12.60
2023-04-21T21:37:45.889Z,12.50
2023-04-21T21:40:13.052Z,12.50
2023-04-21T21:42:40.118Z,12.40
2023-04-21T21:45:07.897Z,12.40
2023-04-21T21:47:36.481Z,12.30
2023-04-21T21:50:08.176Z,12.30
2023-04-21T21:52:34.924Z,12.20
2023-04-21T21:55:01.658Z,12.20
2023-04-21T21:57:28.504Z,12.20
2023-04-21T21:59:55.419Z,12.10
2023-04-21T22:02:22.225Z,12.10
2023-04-21T22:04:49.186Z,12.10
2023-04-21T22:07:17.493Z,12.00
2023-04-21T22:09:44.231Z,12.00
2023-04-21T22:12:11.082Z,11.90
2023-04-21T22:14:37.966Z,11.80
2023-04-21T22:17:04.805Z,11.80
2023-04-21T22:19:31.564Z,11.70
2023-04-21T22:21:58.337Z,11.70
2023-04-21T22:24:26.487Z,11.60
2023-04-21T22:26:53.290Z,11.60
2023-04-21T22:29:20.064Z,11.50
2023-04-21T22:31:47.474Z,11.50
2023-04-21T22:34:14.463Z,11.40
2023-04-21T22:36:41.191Z,11.30
2023-04-21T22:39:07.962Z,11.30
2023-04-21T22:41:36.167Z,11.30
2023-04-21T22:44:03.047Z,11.20
2023-04-21T22:46:29.923Z,11.20
2023-04-21T22:48:56.735Z,11.20
2023-04-21T22:51:23.482Z,11.10
2023-04-21T22:53:50.532Z,11.10
2023-04-21T22:56:17.515Z,11.00
2023-04-21T22:58:46.094Z,11.00
2023-04-21T23:01:13.244Z,10.90
2023-04-21T23:03:40.679Z,10.90
2023-04-21T23:06:07.985Z,10.80
2023-04-21T23:08:34.852Z,10.80
2023-04-21T23:11:02.455Z,10.80
2023-04-21T23:13:30.089Z,10.80
2023-04-21T23:15:58.726Z,10.70
2023-04-21T23:18:25.879Z,10.70
2023-04-21T23:20:52.993Z,10.60
2023-04-21T23:23:19.846Z,10.60
2023-04-21T23:25:46.727Z,10.60
2023-04-21T23:28:13.783Z,10.50
2023-04-21T23:30:40.739Z,10.50
2023-04-21T23:33:09.003Z,10.50
2023-04-21T23:35:35.950Z,10.40
2023-04-21T23:38:03.309Z,10.40
2023-04-21T23:40:30.237Z,10.30
2023-04-21T23:42:57.194Z,10.30
2023-04-21T23:45:24.432Z,10.30
2023-04-21T23:47:51.473Z,10.20
2023-04-21T23:50:20.033Z,10.20
2023-04-21T23:52:46.962Z,10.10
2023-04-21T23:55:14.096Z,10.10
2023-04-21T23:57:41.090Z,10.10
